createdAt,value
2023-09-04T00:07:19.721Z,21.13
2023-09-04T00:17:23.293Z,28.92
2023-09-04T00:27:25.327Z,30.35
2023-09-04T00:37:28.757Z,31.13
2023-09-04T00:47:31.220Z,32.28
2023-09-04T00:57:35.475Z,30.60
2023-09-04T01:07:39.632Z,33.20
2023-09-04T01:17:44.233Z,31.70
2023-09-04T01:27:54.639Z,35.75
2023-09-04T01:37:57.438Z,37.33
2023-09-04T01:48:00.868Z,36.78
2023-09-04T01:58:03.067Z,43.13
2023-09-04T02:08:06.831Z,42.70
2023-09-04T02:18:08.994Z,40.58
2023-09-04T02:28:12.436Z,38.70
2023-09-04T02:38:14.515Z,38.17
2023-09-04T02:48:17.877Z,41.80
2023-09-04T02:58:21.151Z,42.55
2023-09-04T03:08:24.923Z,40.08
2023-09-04T03:18:27.219Z,48.22
2023-09-04T03:28:30.630Z,46.30
2023-09-04T03:38:32.695Z,51.15
2023-09-04T03:48:36.235Z,52.95
2023-09-04T03:58:38.298Z,51.35
2023-09-04T04:08:41.745Z,47.60
2023-09-04T04:18:43.779Z,48.72
2023-09-04T04:28:47.181Z,51.70
2023-09-04T04:38:49.218Z,52.15
2023-09-04T04:48:52.715Z,55.63
2023-09-04T04:58:54.784Z,49.95
2023-09-04T05:08:58.200Z,43.72
2023-09-04T05:19:00.262Z,44.00
2023-09-04T05:29:03.662Z,44.80
2023-09-04T05:39:05.940Z,39.70
2023-09-04T05:49:09.361Z,39.70
2023-09-04T05:59:11.424Z,36.78
2023-09-04T06:09:14.770Z,35.35
2023-09-04T06:19:16.779Z,33.00
2023-09-04T06:29:20.366Z,34.05
2023-09-04T06:39:23.138Z,32.92
2023-09-04T06:49:26.563Z,33.95
2023-09-04T06:59:28.578Z,32.13
2023-09-04T07:09:31.959Z,35.00
2023-09-04T07:19:33.983Z,32.90
2023-09-04T07:29:37.399Z,31.13
2023-09-04T07:39:39.443Z,30.10
2023-09-04T07:49:42.990Z,26.98
2023-09-04T07:59:45.009Z,25.48
2023-09-04T08:09:48.404Z,24.08
2023-09-04T08:19:50.552Z,19.27
2023-09-04T08:29:54.149Z,15.23
2023-09-04T08:39:56.336Z,11.77
2023-09-04T08:50:02.853Z,8.23
2023-09-04T09:00:05.941Z,6.40
2023-09-04T09:10:14.095Z,5.35
2023-09-04T09:20:30.302Z,4.50
2023-09-04T09:30:39.022Z,4.38
2023-09-04T09:40:41.042Z,4.20
2023-09-04T09:50:44.459Z,4.07
2023-09-04T10:00:46.718Z,3.37
2023-09-04T10:10:52.690Z,3.73
2023-09-04T10:20:56.892Z,3.53
2023-09-04T10:31:02.341Z,3.42
2023-09-04T10:41:06.582Z,3.50
2023-09-04T10:51:28.348Z,3.85
2023-09-04T11:01:38.120Z,3.67
2023-09-04T11:11:41.749Z,4.30
2023-09-04T11:21:44.944Z,3.72
2023-09-04T11:42:11.329Z,4.03
2023-09-04T11:52:16.428Z,4.70
2023-09-04T12:02:18.488Z,4.78
2023-09-04T12:12:22.290Z,4.65
2023-09-04T12:22:24.321Z,5.40
2023-09-04T12:32:27.790Z,5.32
2023-09-04T12:42:29.883Z,5.35
2023-09-04T12:52:33.679Z,6.63
2023-09-04T13:02:35.882Z,6.82
2023-09-04T13:12:39.344Z,7.97
2023-09-04T13:22:42.258Z,7.55
2023-09-04T13:32:45.668Z,9.05
2023-09-04T13:42:47.703Z,7.57
2023-09-04T13:52:51.043Z,8.65
2023-09-04T14:02:53.076Z,8.82
2023-09-04T14:12:56.969Z,8.13
2023-09-04T14:22:58.996Z,7.35
2023-09-04T14:33:02.515Z,7.25
2023-09-04T14:43:04.997Z,5.80
2023-09-04T14:53:08.467Z,5.70
2023-09-04T15:03:10.607Z,5.25
2023-09-04T15:13:14.127Z,4.03
2023-09-04T15:23:16.116Z,4.45
2023-09-04T15:33:19.522Z,4.05
2023-09-04T15:43:23.068Z,4.00
2023-09-04T15:53:26.484Z,3.92
2023-09-04T16:03:28.620Z,4.07
2023-09-04T16:13:32.042Z,4.47
2023-09-04T16:24:04.658Z,4.20
2023-09-04T16:34:07.993Z,4.07
2023-09-04T16:44:11.595Z,3.72
2023-09-04T16:54:15.189Z,4.20
2023-09-04T17:04:18.024Z,4.28
2023-09-04T17:14:50.599Z,5.07
2023-09-04T17:24:52.660Z,4.20
2023-09-04T17:34:56.071Z,6.43
2023-09-04T17:44:58.198Z,6.43
2023-09-04T17:55:01.623Z,5.65
2023-09-04T18:05:04.039Z,4.78
2023-09-04T18:15:11.599Z,4.95
2023-09-04T19:08:49.861Z,6.05
2023-09-04T19:41:04.420Z,8.48
2023-09-04T19:51:06.457Z,8.90
2023-09-04T20:35:15.258Z,16.48
2023-09-04T20:45:18.779Z,13.63
2023-09-04T20:55:20.954Z,14.77
2023-09-04T21:05:24.348Z,17.42
2023-09-04T21:15:26.590Z,19.42
2023-09-04T21:25:32.421Z,22.38
2023-09-04T21:35:34.407Z,26.30
2023-09-04T21:45:37.719Z,28.02
2023-09-04T21:55:39.764Z,32.42
2023-09-04T22:05:44.543Z,31.95
2023-09-04T22:15:46.523Z,33.58
2023-09-04T22:25:49.909Z,33.75
2023-09-04T22:35:51.880Z,42.35
2023-09-04T22:45:55.269Z,39.65
2023-09-04T22:55:57.234Z,44.22
2023-09-04T23:06:00.573Z,42.22
2023-09-04T23:16:02.550Z,46.13
2023-09-04T23:26:05.941Z,45.65
2023-09-04T23:36:08.582Z,47.85
2023-09-04T23:46:12.978Z,49.03
2023-09-04T23:56:14.916Z,44.70
